createdAt,value
2018-09-30T00:00:48.933Z,52.10
2018-09-30T00:03:17.746Z,52.70
2018-09-30T00:05:46.589Z,52.10
2018-09-30T00:08:15.510Z,52.10
2018-09-30T00:10:44.351Z,52.10
2018-09-30T00:13:13.172Z,52.20
2018-09-30T00:15:41.979Z,52.10
2018-09-30T00:18:10.810Z,52.10
2018-09-30T00:20:39.936Z,52.20
2018-09-30T00:23:08.742Z,52.10
2018-09-30T00:25:42.893Z,52.20
2018-09-30T00:28:11.683Z,52.20
2018-09-30T00:30:40.479Z,52.10
2018-09-30T00:33:09.327Z,52.10
2018-09-30T00:35:38.419Z,52.10
2018-09-30T00:38:07.196Z,52.10
2018-09-30T00:40:36.132Z,52.10
2018-09-30T00:43:04.975Z,52.10
2018-09-30T00:45:33.766Z,52.10
2018-09-30T00:48:02.649Z,52.10
2018-09-30T00:50:31.507Z,52.10
2018-09-30T00:53:00.304Z,52.20
2018-09-30T00:55:29.141Z,52.10
2018-09-30T00:57:57.974Z,52.10
2018-09-30T01:00:26.778Z,52.20
2018-09-30T01:02:55.970Z,52.20
2018-09-30T01:05:24.778Z,52.30
2018-09-30T01:07:53.584Z,52.30
2018-09-30T01:10:22.428Z,52.30
2018-09-30T01:12:51.221Z,52.30
2018-09-30T01:15:20.036Z,52.40
2018-09-30T01:17:48.875Z,52.40
2018-09-30T01:20:17.791Z,52.40
2018-09-30T01:22:46.603Z,52.50
2018-09-30T01:25:15.719Z,52.60
2018-09-30T01:27:44.538Z,52.70
2018-09-30T01:30:13.347Z,52.70
2018-09-30T01:32:42.122Z,52.70
2018-09-30T01:35:10.939Z,52.70
2018-09-30T01:37:40.211Z,52.70
2018-09-30T01:40:09.046Z,52.90
2018-09-30T01:42:37.865Z,53.00
2018-09-30T01:45:07.812Z,53.10
2018-09-30T01:47:36.755Z,53.20
2018-09-30T01:50:05.581Z,53.20
2018-09-30T01:52:50.963Z,53.30
2018-09-30T01:55:20.016Z,53.40
2018-09-30T01:57:48.816Z,53.40
2018-09-30T02:00:18.206Z,53.40
2018-09-30T02:02:47.411Z,53.10
2018-09-30T02:05:16.917Z,53.50
2018-09-30T02:07:46.931Z,53.40
2018-09-30T02:10:15.808Z,53.40
2018-09-30T02:12:44.650Z,53.40
2018-09-30T02:15:13.468Z,53.50
2018-09-30T02:17:42.254Z,53.50
2018-09-30T02:20:11.135Z,53.70
2018-09-30T02:22:39.962Z,53.70
2018-09-30T02:25:09.346Z,53.90
2018-09-30T02:27:38.215Z,54.00
2018-09-30T02:30:09.203Z,54.00
2018-09-30T02:32:37.996Z,54.20
2018-09-30T02:35:08.230Z,54.20
2018-09-30T02:37:37.084Z,54.20
2018-09-30T02:40:06.341Z,54.20
2018-09-30T02:42:35.209Z,54.20
2018-09-30T02:45:04.059Z,54.30
2018-09-30T02:47:32.859Z,54.50
2018-09-30T02:50:01.665Z,54.50
2018-09-30T02:52:30.870Z,54.50
2018-09-30T02:54:59.675Z,54.40
2018-09-30T02:57:28.495Z,54.50
2018-09-30T02:59:57.332Z,54.50
2018-09-30T03:02:26.122Z,54.50
2018-09-30T03:04:54.923Z,54.50
2018-09-30T03:10:11.721Z,54.30
2018-09-30T03:12:40.506Z,54.90
2018-09-30T03:15:09.301Z,54.90
2018-09-30T03:17:38.118Z,55.00
2018-09-30T03:25:04.907Z,55.10
2018-09-30T03:27:33.699Z,55.00
2018-09-30T03:30:02.531Z,55.30
2018-09-30T03:32:31.763Z,55.50
2018-09-30T03:35:00.540Z,55.70
2018-09-30T03:37:29.443Z,55.90
2018-09-30T03:39:58.280Z,56.00
2018-09-30T03:42:27.759Z,56.10
2018-09-30T03:44:56.611Z,56.20
2018-09-30T03:47:25.439Z,56.40
2018-09-30T03:49:54.247Z,56.30
2018-09-30T03:52:30.818Z,56.70
2018-09-30T03:54:59.667Z,56.90
2018-09-30T03:57:28.485Z,56.80
2018-09-30T03:59:57.294Z,57.00
2018-09-30T04:02:26.478Z,57.10
2018-09-30T04:04:55.267Z,56.90
2018-09-30T04:07:24.103Z,57.10
2018-09-30T04:09:52.919Z,57.10
2018-09-30T04:12:21.709Z,57.10
2018-09-30T04:14:50.669Z,57.00
2018-09-30T04:17:19.504Z,57.00
2018-09-30T04:19:48.310Z,56.80
2018-09-30T04:22:17.152Z,56.80
2018-09-30T04:24:45.970Z,56.70
2018-09-30T04:27:14.777Z,56.70
2018-09-30T04:29:43.590Z,56.70
2018-09-30T04:32:12.410Z,56.60
2018-09-30T04:34:41.246Z,56.60
2018-09-30T04:37:10.193Z,57.00
2018-09-30T04:39:39.006Z,56.50
2018-09-30T04:42:07.894Z,56.90
2018-09-30T04:44:37.098Z,56.50
2018-09-30T04:47:05.989Z,56.50
2018-09-30T04:49:34.812Z,56.50
2018-09-30T04:52:03.660Z,56.50
2018-09-30T04:54:32.580Z,56.60
2018-09-30T04:57:01.450Z,56.50
2018-09-30T04:59:30.393Z,56.50
2018-09-30T05:01:59.247Z,56.50
2018-09-30T05:04:28.049Z,56.40
2018-09-30T05:06:56.907Z,56.40
2018-09-30T05:09:25.727Z,56.30
2018-09-30T05:11:54.594Z,56.20
2018-09-30T05:14:23.406Z,56.30
2018-09-30T05:16:52.244Z,56.30
2018-09-30T05:19:21.050Z,56.30
2018-09-30T05:21:50.010Z,56.40
2018-09-30T05:24:18.829Z,56.30
2018-09-30T05:26:47.637Z,56.40
2018-09-30T05:29:16.469Z,56.40
2018-09-30T05:31:45.279Z,56.30
2018-09-30T05:34:14.074Z,56.40
2018-09-30T05:36:42.917Z,56.40
2018-09-30T05:39:12.154Z,56.00
2018-09-30T05:41:41.005Z,56.10
2018-09-30T05:44:10.526Z,56.10
2018-09-30T05:46:39.995Z,56.20
2018-09-30T05:49:09.208Z,56.10
2018-09-30T05:51:38.045Z,56.10
2018-09-30T05:54:06.890Z,55.90
2018-09-30T05:56:35.701Z,55.90
2018-09-30T05:59:04.539Z,55.70
2018-09-30T06:01:33.348Z,55.80
2018-09-30T06:04:02.178Z,55.80
2018-09-30T06:06:31.252Z,55.50
2018-09-30T06:09:00.116Z,55.40
2018-09-30T06:11:28.913Z,55.30
2018-09-30T06:13:57.779Z,55.30
2018-09-30T06:16:26.561Z,55.10
2018-09-30T06:18:55.454Z,54.80
2018-09-30T06:21:24.277Z,54.80
2018-09-30T06:23:53.097Z,54.70
2018-09-30T06:26:21.894Z,54.90
2018-09-30T06:28:50.907Z,54.70
2018-09-30T06:31:19.715Z,54.50
2018-09-30T06:33:48.536Z,54.60
2018-09-30T06:36:17.450Z,54.50
2018-09-30T06:38:46.267Z,54.20
2018-09-30T06:41:15.062Z,53.90
2018-09-30T06:43:43.883Z,53.80
2018-09-30T06:46:12.723Z,53.70
2018-09-30T06:48:42.060Z,53.60
2018-09-30T06:51:11.023Z,53.40
2018-09-30T06:53:39.828Z,53.30
2018-09-30T06:56:08.633Z,53.20
2018-09-30T06:58:37.440Z,53.00
2018-09-30T07:01:06.257Z,52.90
2018-09-30T07:03:35.061Z,52.80
2018-09-30T07:06:03.913Z,52.60
2018-09-30T07:08:32.725Z,52.50
2018-09-30T07:11:01.563Z,52.30
2018-09-30T07:13:30.511Z,52.20
2018-09-30T07:15:59.321Z,52.40
2018-09-30T07:18:28.158Z,52.30
2018-09-30T07:20:56.955Z,52.40
2018-09-30T07:23:25.786Z,52.00
2018-09-30T07:25:54.687Z,51.80
2018-09-30T07:28:23.529Z,51.70
2018-09-30T07:30:52.358Z,51.60
2018-09-30T07:33:21.170Z,51.50
2018-09-30T07:35:50.307Z,51.80
2018-09-30T07:38:19.139Z,51.50
2018-09-30T07:40:47.946Z,51.10
2018-09-30T07:43:16.789Z,51.20
2018-09-30T07:45:45.662Z,51.10
2018-09-30T07:48:14.469Z,50.80
2018-09-30T07:50:43.592Z,50.70
2018-09-30T07:53:12.505Z,50.80
2018-09-30T07:55:41.346Z,50.90
2018-09-30T07:58:10.281Z,50.60
2018-09-30T08:00:39.076Z,51.10
2018-09-30T08:03:07.966Z,50.40
2018-09-30T08:05:36.847Z,50.10
2018-09-30T08:08:05.735Z,50.10
2018-09-30T08:10:34.571Z,50.10
2018-09-30T08:13:03.401Z,50.00
2018-09-30T08:15:32.209Z,49.80
2018-09-30T08:18:01.130Z,49.80
2018-09-30T08:20:30.187Z,49.60
2018-09-30T08:22:58.985Z,49.60
2018-09-30T08:25:27.843Z,50.10
2018-09-30T08:27:56.705Z,49.50
2018-09-30T08:30:25.515Z,49.50
2018-09-30T08:32:54.363Z,49.40
2018-09-30T08:35:23.200Z,49.20
2018-09-30T08:37:57.290Z,49.10
2018-09-30T08:40:31.739Z,49.00
2018-09-30T08:43:00.573Z,49.10
2018-09-30T08:45:29.531Z,49.00
2018-09-30T08:47:58.635Z,48.90
2018-09-30T08:50:27.509Z,48.40
2018-09-30T08:52:56.849Z,48.70
2018-09-30T08:55:25.673Z,48.50
2018-09-30T08:57:54.504Z,48.40
2018-09-30T09:00:23.346Z,48.20
2018-09-30T09:02:52.474Z,48.00
2018-09-30T09:05:21.196Z,47.90
2018-09-30T09:07:50.018Z,47.80
2018-09-30T09:10:18.863Z,47.50
2018-09-30T09:12:47.771Z,47.20
2018-09-30T09:15:16.664Z,47.00
2018-09-30T09:17:45.501Z,47.00
2018-09-30T09:20:14.319Z,47.00
2018-09-30T09:22:43.139Z,47.00
2018-09-30T09:25:12.110Z,47.00
2018-09-30T09:27:40.932Z,46.60
2018-09-30T09:30:09.843Z,46.60
2018-09-30T09:32:39.286Z,46.50
2018-09-30T09:35:09.590Z,46.30
2018-09-30T09:37:38.803Z,45.90
2018-09-30T09:40:09.958Z,45.80
2018-09-30T09:42:39.022Z,45.80
2018-09-30T09:45:08.289Z,45.70
2018-09-30T09:47:37.211Z,45.50
2018-09-30T09:50:09.185Z,45.50
2018-09-30T09:52:38.020Z,45.30
2018-09-30T09:55:08.637Z,45.20
2018-09-30T09:57:37.441Z,45.20
2018-09-30T10:00:07.308Z,44.70
2018-09-30T10:02:36.170Z,44.60
2018-09-30T10:05:05.199Z,44.70
2018-09-30T10:07:34.301Z,44.40
2018-09-30T10:10:03.129Z,44.40
2018-09-30T10:12:31.956Z,44.20
2018-09-30T10:15:00.757Z,44.00
2018-09-30T10:17:29.582Z,43.80
2018-09-30T10:19:58.408Z,43.50
2018-09-30T10:22:27.214Z,43.50
2018-09-30T10:24:56.009Z,43.20
2018-09-30T10:27:24.834Z,43.20
2018-09-30T10:29:53.912Z,43.00
2018-09-30T10:32:22.706Z,42.90
2018-09-30T10:34:51.514Z,42.80
2018-09-30T10:37:20.341Z,42.30
2018-09-30T10:39:49.146Z,42.40
2018-09-30T10:42:17.930Z,42.20
2018-09-30T10:44:46.811Z,42.00
2018-09-30T10:47:15.607Z,42.10
2018-09-30T10:49:44.390Z,42.00
2018-09-30T10:52:13.410Z,42.00
2018-09-30T10:54:42.210Z,41.80
2018-09-30T10:57:11.637Z,41.30
2018-09-30T10:59:40.542Z,41.10
2018-09-30T11:02:09.369Z,41.10
2018-09-30T11:04:38.196Z,40.80
2018-09-30T11:07:07.060Z,40.60
2018-09-30T11:09:35.957Z,40.40
2018-09-30T11:12:04.709Z,40.20
2018-09-30T11:14:34.056Z,40.20
2018-09-30T11:17:02.857Z,39.80
2018-09-30T11:19:31.657Z,39.80
2018-09-30T11:22:00.471Z,39.60
2018-09-30T11:24:29.301Z,39.50
2018-09-30T11:26:58.225Z,39.40
2018-09-30T11:29:27.061Z,39.30
2018-09-30T11:31:55.905Z,39.20
2018-09-30T11:34:24.690Z,39.00
2018-09-30T11:36:53.868Z,38.80
2018-09-30T11:39:22.661Z,38.70
2018-09-30T11:41:51.450Z,38.60
2018-09-30T11:44:20.249Z,38.50
2018-09-30T11:46:49.128Z,38.30
2018-09-30T11:49:17.923Z,38.10
2018-09-30T11:51:46.789Z,38.20
2018-09-30T11:54:15.608Z,38.50
2018-09-30T11:56:44.406Z,38.50
2018-09-30T11:59:14.197Z,38.00
2018-09-30T12:01:43.530Z,38.30
2018-09-30T12:04:12.340Z,37.50
2018-09-30T12:06:41.214Z,37.40
2018-09-30T12:09:10.481Z,37.50
2018-09-30T12:11:39.271Z,37.10
2018-09-30T12:14:08.166Z,36.80
2018-09-30T12:16:37.011Z,36.80
2018-09-30T12:19:05.869Z,36.70
2018-09-30T12:21:34.947Z,36.40
2018-09-30T12:24:03.760Z,36.70
2018-09-30T12:26:32.582Z,36.90
2018-09-30T12:29:01.953Z,36.50
2018-09-30T12:31:30.821Z,36.40
2018-09-30T12:33:59.641Z,36.60
2018-09-30T12:36:28.474Z,36.20
2018-09-30T12:38:57.274Z,36.40
2018-09-30T12:41:26.083Z,36.40
2018-09-30T12:43:55.053Z,36.40
2018-09-30T12:46:23.873Z,36.10
2018-09-30T12:48:52.666Z,36.10
2018-09-30T12:51:21.485Z,35.80
2018-09-30T12:53:50.301Z,35.80
2018-09-30T12:56:19.151Z,35.60
2018-09-30T12:58:47.959Z,35.90
2018-09-30T13:01:17.494Z,35.70
2018-09-30T13:03:46.298Z,35.60
2018-09-30T13:06:15.367Z,35.30
2018-09-30T13:08:44.343Z,35.30
2018-09-30T13:11:13.162Z,35.30
2018-09-30T13:13:41.996Z,35.40
2018-09-30T13:16:10.818Z,35.60
2018-09-30T13:18:39.629Z,35.10
2018-09-30T13:21:08.455Z,34.90
2018-09-30T13:23:37.275Z,35.00
2018-09-30T13:26:06.100Z,34.80
2018-09-30T13:28:34.998Z,34.90
2018-09-30T13:31:03.772Z,34.00
2018-09-30T13:33:32.747Z,34.30
2018-09-30T13:36:01.540Z,33.50
2018-09-30T13:38:30.392Z,34.00
2018-09-30T13:40:59.407Z,33.80
2018-09-30T13:43:28.100Z,33.90
2018-09-30T13:45:56.944Z,34.00
2018-09-30T13:48:25.737Z,34.10
2018-09-30T13:50:54.577Z,34.30
2018-09-30T13:53:23.381Z,34.00
2018-09-30T13:55:52.179Z,34.00
2018-09-30T13:58:21.068Z,33.90
2018-09-30T14:00:49.810Z,33.60
2018-09-30T14:03:19.246Z,33.70
2018-09-30T14:05:48.312Z,33.90
2018-09-30T14:08:17.254Z,33.90
2018-09-30T14:10:46.066Z,34.00
2018-09-30T14:13:14.966Z,33.70
2018-09-30T14:15:43.887Z,33.40
2018-09-30T14:18:12.706Z,33.50
2018-09-30T14:20:41.519Z,33.10
2018-09-30T14:23:10.333Z,33.20
2018-09-30T14:25:39.133Z,33.00
2018-09-30T14:28:08.480Z,33.70
2018-09-30T14:30:37.300Z,32.70
2018-09-30T14:33:06.249Z,32.80
2018-09-30T14:35:35.509Z,33.00
2018-09-30T14:38:04.354Z,33.00
2018-09-30T14:40:33.156Z,32.70
2018-09-30T14:43:01.981Z,33.00
2018-09-30T14:45:30.841Z,33.00
2018-09-30T14:47:59.715Z,33.20
2018-09-30T14:50:29.307Z,33.00
2018-09-30T14:52:58.093Z,33.40
2018-09-30T14:55:26.886Z,33.20
2018-09-30T14:57:55.690Z,32.80
2018-09-30T15:00:24.489Z,32.90
2018-09-30T15:02:53.337Z,31.90
2018-09-30T15:05:22.767Z,32.30
2018-09-30T15:07:51.553Z,32.00
2018-09-30T15:10:20.361Z,31.80
2018-09-30T15:12:49.589Z,32.10
2018-09-30T15:15:18.407Z,32.10
2018-09-30T15:17:47.218Z,32.10
2018-09-30T15:20:16.035Z,32.20
2018-09-30T15:22:44.873Z,32.40
2018-09-30T15:25:13.681Z,31.70
2018-09-30T15:27:42.482Z,31.60
2018-09-30T15:30:11.373Z,32.10
2018-09-30T15:32:40.173Z,31.90
2018-09-30T15:35:09.398Z,31.70
2018-09-30T15:37:38.210Z,31.60
2018-09-30T15:40:08.315Z,31.40
2018-09-30T15:42:37.200Z,31.60
2018-09-30T15:45:06.039Z,31.40
2018-09-30T15:47:34.820Z,31.50
2018-09-30T15:50:03.692Z,31.60
2018-09-30T15:52:32.492Z,32.00
2018-09-30T15:55:01.347Z,31.70
2018-09-30T15:57:30.246Z,32.00
2018-09-30T15:59:59.049Z,32.20
2018-09-30T16:02:27.866Z,32.30
2018-09-30T16:04:56.730Z,32.50
2018-09-30T16:07:25.862Z,33.10
2018-09-30T16:09:54.722Z,32.80
2018-09-30T16:12:23.625Z,32.70
2018-09-30T16:14:52.418Z,32.90
2018-09-30T16:17:21.221Z,33.00
2018-09-30T16:19:50.413Z,33.20
2018-09-30T16:22:19.220Z,33.30
2018-09-30T16:24:48.056Z,33.50
2018-09-30T16:27:16.902Z,33.60
2018-09-30T16:29:46.070Z,33.60
2018-09-30T16:32:14.868Z,33.50
2018-09-30T16:34:43.960Z,33.70
2018-09-30T16:37:12.827Z,33.90
2018-09-30T16:39:41.614Z,33.90
2018-09-30T16:42:11.036Z,34.00
2018-09-30T16:44:39.880Z,34.10
2018-09-30T16:47:08.698Z,34.20
2018-09-30T16:49:37.515Z,34.40
2018-09-30T16:52:06.335Z,34.60
2018-09-30T16:54:35.177Z,35.10
2018-09-30T16:57:03.987Z,35.00
2018-09-30T16:59:32.775Z,35.10
2018-09-30T17:02:01.599Z,35.50
2018-09-30T17:04:30.854Z,35.40
2018-09-30T17:06:59.675Z,35.50
2018-09-30T17:09:28.667Z,35.60
2018-09-30T17:11:57.486Z,35.80
2018-09-30T17:14:26.614Z,36.10
2018-09-30T17:16:55.539Z,36.20
2018-09-30T17:19:24.362Z,36.20
2018-09-30T17:21:53.175Z,36.50
2018-09-30T17:24:21.954Z,36.80
2018-09-30T17:26:50.884Z,37.10
2018-09-30T17:29:19.713Z,37.10
2018-09-30T17:31:48.521Z,37.40
2018-09-30T17:34:17.421Z,37.40
2018-09-30T17:36:46.334Z,37.50
2018-09-30T17:39:15.110Z,37.60
2018-09-30T17:41:43.919Z,37.70
2018-09-30T17:44:12.718Z,38.00
2018-09-30T17:46:41.499Z,38.20
2018-09-30T17:49:10.604Z,38.50
2018-09-30T17:51:39.389Z,38.80
2018-09-30T17:54:08.260Z,39.00
2018-09-30T17:56:37.067Z,39.80
2018-09-30T17:59:05.884Z,39.50
2018-09-30T18:01:34.695Z,39.60
2018-09-30T18:04:03.567Z,39.80
2018-09-30T18:06:32.477Z,40.00
2018-09-30T18:09:01.286Z,40.20
2018-09-30T18:11:30.866Z,40.40
2018-09-30T18:13:59.710Z,40.60
2018-09-30T18:16:28.511Z,40.80
2018-09-30T18:18:57.334Z,41.10
2018-09-30T18:21:26.146Z,41.20
2018-09-30T18:23:54.978Z,41.60
2018-09-30T18:26:23.809Z,41.80
2018-09-30T18:28:52.702Z,42.10
2018-09-30T18:31:21.533Z,42.20
2018-09-30T18:33:50.726Z,42.30
2018-09-30T18:36:19.558Z,42.40
2018-09-30T18:38:48.357Z,42.60
2018-09-30T18:41:17.214Z,42.80
2018-09-30T18:43:46.032Z,42.90
2018-09-30T18:46:14.858Z,43.30
2018-09-30T18:48:44.797Z,43.40
2018-09-30T18:51:13.590Z,43.60
2018-09-30T18:53:42.448Z,43.90
2018-09-30T18:56:11.704Z,44.10
2018-09-30T18:58:40.764Z,44.20
2018-09-30T19:01:09.886Z,44.40
2018-09-30T19:03:38.726Z,44.70
2018-09-30T19:06:07.703Z,44.90
2018-09-30T19:08:36.515Z,45.00
2018-09-30T19:11:05.367Z,45.10
2018-09-30T19:13:34.231Z,45.40
2018-09-30T19:16:03.183Z,45.40
2018-09-30T19:18:32.108Z,45.50
2018-09-30T19:21:00.922Z,45.80
2018-09-30T19:23:29.726Z,45.90
2018-09-30T19:25:58.548Z,46.00
2018-09-30T19:28:27.350Z,46.20
2018-09-30T19:30:56.162Z,46.70
2018-09-30T19:33:24.957Z,46.70
2018-09-30T19:35:53.880Z,46.90
2018-09-30T19:38:22.674Z,46.90
2018-09-30T19:40:51.700Z,47.20
2018-09-30T19:43:20.490Z,47.40
2018-09-30T19:45:49.337Z,47.60
2018-09-30T19:48:18.193Z,47.80
2018-09-30T19:50:47.049Z,47.90
2018-09-30T19:53:15.891Z,48.10
2018-09-30T19:55:44.709Z,48.20
2018-09-30T19:58:13.558Z,48.20
2018-09-30T20:00:42.373Z,48.20
2018-09-30T20:03:11.522Z,48.20
2018-09-30T20:05:40.325Z,48.30
2018-09-30T20:08:09.177Z,48.50
2018-09-30T20:10:38.050Z,48.80
2018-09-30T20:13:07.066Z,48.90
2018-09-30T20:15:36.411Z,49.10
2018-09-30T20:18:05.254Z,49.00
2018-09-30T20:20:34.126Z,49.70
2018-09-30T20:23:02.959Z,49.30
2018-09-30T20:25:31.902Z,49.50
2018-09-30T20:28:00.763Z,49.50
2018-09-30T20:30:29.563Z,49.80
2018-09-30T20:32:58.396Z,49.80
2018-09-30T20:35:27.198Z,50.00
2018-09-30T20:37:56.127Z,50.20
2018-09-30T20:40:24.921Z,50.40
2018-09-30T20:42:53.750Z,50.60
2018-09-30T20:45:22.529Z,50.60
2018-09-30T20:47:51.464Z,50.70
2018-09-30T20:50:20.280Z,50.80
2018-09-30T20:52:49.112Z,51.00
2018-09-30T20:55:17.945Z,51.10
2018-09-30T20:57:46.766Z,51.30
2018-09-30T21:00:15.597Z,51.20
2018-09-30T21:02:44.476Z,51.40
2018-09-30T21:05:28.876Z,51.40
2018-09-30T21:07:58.242Z,51.70
2018-09-30T21:10:27.070Z,51.70
2018-09-30T21:12:55.877Z,51.70
2018-09-30T21:15:24.673Z,51.70
2018-09-30T21:17:53.944Z,52.10
2018-09-30T21:20:22.743Z,52.20
2018-09-30T21:22:51.703Z,52.30
2018-09-30T21:25:20.511Z,52.40
2018-09-30T21:27:49.315Z,52.50
2018-09-30T21:30:18.399Z,52.70
2018-09-30T21:32:47.190Z,52.70
2018-09-30T21:35:16.005Z,52.80
2018-09-30T21:37:44.833Z,52.80
2018-09-30T21:40:13.631Z,52.90
2018-09-30T21:42:42.422Z,53.20
2018-09-30T21:45:11.235Z,53.30
2018-09-30T21:47:40.047Z,53.40
2018-09-30T21:50:08.664Z,53.50
2018-09-30T21:52:37.738Z,53.50
2018-09-30T21:55:07.769Z,53.70
2018-09-30T21:57:36.526Z,53.90
2018-09-30T22:00:06.303Z,54.00
2018-09-30T22:02:35.098Z,54.00
2018-09-30T22:05:03.914Z,54.20
2018-09-30T22:07:32.754Z,54.20
2018-09-30T22:10:01.573Z,54.20
2018-09-30T22:12:30.358Z,54.30
2018-09-30T22:14:59.322Z,54.30
2018-09-30T22:17:28.126Z,54.40
2018-09-30T22:19:57.347Z,54.60
2018-09-30T22:22:26.153Z,54.90
2018-09-30T22:24:54.982Z,54.80
2018-09-30T22:27:23.777Z,54.80
2018-09-30T22:29:52.639Z,55.00
2018-09-30T22:32:21.454Z,55.00
2018-09-30T22:34:50.253Z,55.10
2018-09-30T22:37:19.153Z,55.20
2018-09-30T22:39:47.937Z,55.00
2018-09-30T22:42:16.820Z,55.70
2018-09-30T22:44:45.637Z,55.20
2018-09-30T22:47:14.604Z,55.20
2018-09-30T22:49:43.415Z,55.20
2018-09-30T22:52:12.332Z,55.30
2018-09-30T22:54:41.137Z,55.40
2018-09-30T22:57:09.964Z,55.30
2018-09-30T22:59:38.907Z,55.20
2018-09-30T23:02:08.160Z,56.00
2018-09-30T23:04:37.001Z,55.50
2018-09-30T23:07:05.821Z,55.50
2018-09-30T23:09:34.680Z,55.60
2018-09-30T23:12:03.503Z,55.70
2018-09-30T23:14:32.294Z,55.70
2018-09-30T23:17:01.096Z,55.70
2018-09-30T23:19:29.895Z,55.80
2018-09-30T23:21:59.316Z,56.00
2018-09-30T23:24:28.104Z,56.10
2018-09-30T23:26:56.920Z,56.10
2018-09-30T23:29:25.759Z,56.10
2018-09-30T23:31:54.562Z,56.20
2018-09-30T23:34:23.357Z,56.90
2018-09-30T23:36:52.530Z,56.40
2018-09-30T23:39:21.321Z,56.40
2018-09-30T23:41:50.120Z,56.40
2018-09-30T23:44:19.015Z,56.50
2018-09-30T23:46:47.832Z,56.20
2018-09-30T23:49:16.697Z,56.10
2018-09-30T23:51:45.523Z,56.00
2018-09-30T23:54:14.476Z,56.00
2018-09-30T23:56:43.292Z,56.00
2018-09-30T23:59:12.106Z,56.00
